Time;durP1;ratioP1;P1;durP2;ratioP2;P2;SDS_P1;SDS_P2;PMS_P1;PMS_P2;Temp;Humidity;BMP_temperature;BMP_pressure;BME280_temperature;BME280_humidity;BME280_pressure;Samples;Min_cycle;Max_cycle;Signal;HPM_P1;HPM_P2
2022/01/01 00:00:37;;;;;;;34.60;24.15;;;;;;;;;;5069896;28;20024;-66
2022/01/01 00:03:02;;;;;;;38.33;23.65;;;;;;;;;;5071177;28;20381;-67
2022/01/01 00:05:28;;;;;;;40.45;23.80;;;;;;;;;;5074294;28;20021;-66
2022/01/01 00:07:53;;;;;;;37.45;22.73;;;;;;;;;;5074004;28;20032;-67
2022/01/01 00:10:20;;;;;;;36.70;23.70;;;;;;;;;;5074096;28;20024;-66
2022/01/01 00:12:47;;;;;;;33.72;22.15;;;;;;;;;;5073695;28;20081;-67
2022/01/01 00:15:14;;;;;;;33.85;22.20;;;;;;;;;;5073987;28;20028;-67
2022/01/01 00:17:40;;;;;;;34.72;22.77;;;;;;;;;;5073924;28;20494;-66
2022/01/01 00:20:09;;;;;;;37.83;23.67;;;;;;;;;;5073790;28;20487;-67
2022/01/01 00:22:35;;;;;;;36.65;22.70;;;;;;;;;;5073721;28;20032;-67
2022/01/01 00:25:01;;;;;;;34.45;21.45;;;;;;;;;;5073829;28;20017;-67
2022/01/01 00:27:26;;;;;;;34.00;22.35;;;;;;;;;;5073782;28;20020;-66
2022/01/01 00:29:52;;;;;;;38.08;24.20;;;;;;;;;;5073685;28;20048;-67
2022/01/01 00:32:17;;;;;;;39.45;24.70;;;;;;;;;;5073660;28;20024;-68
2022/01/01 00:34:42;;;;;;;36.90;23.08;;;;;;;;;;5073358;28;20031;-67
2022/01/01 00:37:08;;;;;;;39.35;23.02;;;;;;;;;;5073382;28;20053;-67
2022/01/01 00:39:33;;;;;;;35.97;22.70;;;;;;;;;;5073534;28;20028;-67
2022/01/01 00:41:59;;;;;;;36.75;23.83;;;;;;;;;;5073306;28;20611;-67
2022/01/01 00:44:24;;;;;;;39.05;24.77;;;;;;;;;;5073588;28;20033;-67
2022/01/01 00:46:50;;;;;;;42.35;25.30;;;;;;;;;;5073477;28;20034;-66
2022/01/01 00:49:15;;;;;;;44.60;26.45;;;;;;;;;;5073458;28;20024;-67
2022/01/01 00:51:41;;;;;;;40.42;26.73;;;;;;;;;;5073253;28;20035;-67
2022/01/01 00:54:07;;;;;;;45.72;26.88;;;;;;;;;;5055052;28;20047;-67
2022/01/01 00:56:32;;;;;;;42.30;27.25;;;;;;;;;;5073279;28;20400;-67
2022/01/01 00:58:57;;;;;;;46.97;27.88;;;;;;;;;;5072853;28;20404;-67
2022/01/01 01:01:23;;;;;;;47.03;27.65;;;;;;;;;;5054990;28;20054;-67
2022/01/01 01:03:48;;;;;;;46.65;29.05;;;;;;;;;;5072945;28;20468;-67
2022/01/01 01:06:14;;;;;;;46.25;28.52;;;;;;;;;;5073237;28;20153;-67
2022/01/01 01:08:40;;;;;;;52.70;30.10;;;;;;;;;;5072976;28;20063;-67
2022/01/01 01:11:08;;;;;;;45.08;27.25;;;;;;;;;;5072825;28;20016;-67
2022/01/01 01:13:34;;;;;;;43.50;27.77;;;;;;;;;;5072499;28;20434;-67
2022/01/01 01:16:00;;;;;;;50.28;28.13;;;;;;;;;;5072147;28;20064;-67
2022/01/01 01:18:26;;;;;;;48.00;28.17;;;;;;;;;;5072763;28;20455;-67
2022/01/01 01:20:51;;;;;;;47.28;27.27;;;;;;;;;;5073037;28;20035;-67
2022/01/01 01:23:17;;;;;;;46.55;26.63;;;;;;;;;;5072433;28;20469;-67
2022/01/01 01:25:42;;;;;;;43.20;26.80;;;;;;;;;;5072761;28;20056;-67
2022/01/01 01:28:09;;;;;;;43.67;27.33;;;;;;;;;;5072606;28;20044;-67
2022/01/01 01:30:37;;;;;;;40.80;25.60;;;;;;;;;;5072629;28;20387;-67
2022/01/01 01:33:03;;;;;;;43.05;25.27;;;;;;;;;;5072420;28;20519;-67
2022/01/01 01:35:28;;;;;;;41.75;23.80;;;;;;;;;;5072272;28;20189;-67
2022/01/01 01:37:54;;;;;;;38.20;22.83;;;;;;;;;;5072678;28;20518;-67
2022/01/01 01:40:19;;;;;;;39.65;23.08;;;;;;;;;;5072410;28;20032;-67
2022/01/01 01:42:45;;;;;;;38.13;21.42;;;;;;;;;;5071985;28;20020;-72
2022/01/01 01:45:17;;;;;;;29.20;19.38;;;;;;;;;;5072242;28;20095;-67
2022/01/01 01:47:47;;;;;;;29.45;19.88;;;;;;;;;;5072412;28;20032;-67
2022/01/01 01:50:16;;;;;;;29.30;18.52;;;;;;;;;;5054260;28;20464;-67
2022/01/01 01:52:45;;;;;;;27.55;17.73;;;;;;;;;;5072244;28;20028;-67
2022/01/01 01:55:12;;;;;;;28.50;18.30;;;;;;;;;;5072002;28;20112;-67
2022/01/01 01:57:39;;;;;;;23.63;15.05;;;;;;;;;;5072117;28;20379;-67
2022/01/01 02:02:54;;;;;;;22.80;14.60;;;;;;;;;;5071878;28;20488;-68
2022/01/01 02:05:23;;;;;;;27.30;16.48;;;;;;;;;;5071829;28;20036;-67
2022/01/01 02:07:49;;;;;;;27.90;17.38;;;;;;;;;;5071818;28;20035;-67
2022/01/01 02:10:16;;;;;;;32.20;20.00;;;;;;;;;;5071745;28;20044;-66
2022/01/01 02:12:42;;;;;;;30.60;19.45;;;;;;;;;;5071837;28;20025;-66
2022/01/01 02:15:26;;;;;;;28.30;17.88;;;;;;;;;;5071738;28;20107;-67
2022/01/01 02:17:54;;;;;;;34.17;20.08;;;;;;;;;;5071707;28;20031;-66
2022/01/01 02:20:21;;;;;;;33.45;20.33;;;;;;;;;;5071486;28;20024;-67
2022/01/01 02:22:48;;;;;;;34.42;19.27;;;;;;;;;;5071550;28;20028;-66
2022/01/01 02:25:15;;;;;;;28.00;17.75;;;;;;;;;;5071469;28;20024;-67
2022/01/01 02:27:41;;;;;;;29.00;17.73;;;;;;;;;;5070432;28;20025;-67
2022/01/01 02:30:10;;;;;;;33.45;19.30;;;;;;;;;;5071568;28;20028;-67
2022/01/01 02:32:36;;;;;;;30.33;19.17;;;;;;;;;;5071396;28;20034;-66
2022/01/01 02:35:02;;;;;;;31.50;18.00;;;;;;;;;;5070885;28;20028;-67
2022/01/01 02:37:27;;;;;;;30.23;17.67;;;;;;;;;;5071368;28;20465;-67
2022/01/01 02:39:53;;;;;;;28.63;16.98;;;;;;;;;;5071186;28;20381;-67
2022/01/01 02:42:20;;;;;;;27.23;15.90;;;;;;;;;;5071104;28;20020;-67
2022/01/01 02:44:46;;;;;;;28.23;16.52;;;;;;;;;;5052972;28;20043;-67
2022/01/01 02:47:12;;;;;;;23.02;13.93;;;;;;;;;;5071094;28;20052;-67
2022/01/01 02:49:37;;;;;;;19.42;12.10;;;;;;;;;;5071054;28;20059;-67
2022/01/01 02:52:03;;;;;;;21.88;12.07;;;;;;;;;;5070970;28;20271;-67
2022/01/01 02:54:28;;;;;;;20.30;12.05;;;;;;;;;;5070948;28;20020;-66
2022/01/01 02:56:54;;;;;;;20.30;12.63;;;;;;;;;;5052836;28;20028;-67
2022/01/01 02:59:19;;;;;;;23.60;12.65;;;;;;;;;;5070682;28;20058;-67
2022/01/01 03:01:45;;;;;;;19.90;12.15;;;;;;;;;;5071395;28;20116;-67
2022/01/01 03:04:11;;;;;;;21.25;11.48;;;;;;;;;;5070780;28;20036;-67
2022/01/01 03:06:36;;;;;;;18.45;11.65;;;;;;;;;;5052722;28;20028;-67
2022/01/01 03:09:02;;;;;;;17.70;11.10;;;;;;;;;;5070806;28;20369;-67
2022/01/01 03:11:28;;;;;;;16.85;10.60;;;;;;;;;;5070990;28;20032;-67
2022/01/01 03:13:53;;;;;;;16.73;9.68;;;;;;;;;;5070483;28;20395;-67
2022/01/01 03:16:18;;;;;;;19.25;10.15;;;;;;;;;;5070785;28;20078;-67
2022/01/01 03:18:44;;;;;;;16.65;10.00;;;;;;;;;;5070645;28;20016;-66
2022/01/01 03:21:09;;;;;;;15.30;9.85;;;;;;;;;;5070598;28;20105;-67
2022/01/01 03:23:35;;;;;;;14.63;9.10;;;;;;;;;;5070334;28;20442;-67
2022/01/01 03:26:00;;;;;;;15.18;9.20;;;;;;;;;;5070616;28;20785;-67
2022/01/01 03:28:27;;;;;;;12.50;8.35;;;;;;;;;;5070581;28;20039;-67
2022/01/01 03:30:53;;;;;;;12.63;8.25;;;;;;;;;;5070471;28;20025;-67
2022/01/01 03:33:18;;;;;;;12.50;7.88;;;;;;;;;;5070498;28;20028;-67
2022/01/01 03:35:44;;;;;;;14.15;8.45;;;;;;;;;;5070208;28;20043;-67
2022/01/01 03:38:10;;;;;;;13.40;7.85;;;;;;;;;;5070234;28;20028;-67
2022/01/01 03:40:35;;;;;;;11.50;7.90;;;;;;;;;;5070289;28;20029;-67
2022/01/01 03:43:00;;;;;;;13.45;8.23;;;;;;;;;;5070209;28;20056;-66
2022/01/01 03:45:26;;;;;;;18.30;10.75;;;;;;;;;;5070264;28;20029;-66
2022/01/01 03:47:52;;;;;;;17.67;9.88;;;;;;;;;;5070185;28;20028;-67
2022/01/01 03:50:18;;;;;;;17.23;9.50;;;;;;;;;;5070485;28;20063;-66
2022/01/01 03:52:45;;;;;;;16.48;9.35;;;;;;;;;;5070455;28;20700;-67
2022/01/01 03:55:12;;;;;;;16.58;8.95;;;;;;;;;;5070102;28;20438;-66
2022/01/01 03:57:37;;;;;;;14.75;8.27;;;;;;;;;;5070061;28;20038;-66
2022/01/01 04:00:09;;;;;;;17.25;8.15;;;;;;;;;;5070086;28;20387;-66
2022/01/01 04:02:34;;;;;;;15.57;7.78;;;;;;;;;;5070260;28;20093;-67
2022/01/01 04:05:00;;;;;;;17.15;7.97;;;;;;;;;;5070029;28;20021;-66
2022/01/01 04:07:26;;;;;;;15.75;8.00;;;;;;;;;;5070117;28;20036;-66
2022/01/01 04:09:51;;;;;;;14.15;7.25;;;;;;;;;;5070552;28;20047;-66
2022/01/01 04:12:16;;;;;;;14.80;6.82;;;;;;;;;;5070053;28;20025;-66
2022/01/01 04:14:42;;;;;;;9.20;6.22;;;;;;;;;;5069803;28;20256;-67
2022/01/01 04:17:10;;;;;;;10.15;5.80;;;;;;;;;;5070073;28;20711;-67
2022/01/01 04:19:39;;;;;;;9.02;5.72;;;;;;;;;;5070383;28;20029;-67
2022/01/01 04:22:16;;;;;;;9.48;5.97;;;;;;;;;;5069968;28;20460;-66
2022/01/01 04:24:42;;;;;;;8.20;5.63;;;;;;;;;;5069808;28;20017;-67
2022/01/01 04:27:09;;;;;;;8.82;5.47;;;;;;;;;;5069933;28;20024;-67
2022/01/01 04:29:35;;;;;;;9.13;5.55;;;;;;;;;;5069878;28;20032;-67
2022/01/01 04:32:01;;;;;;;7.47;5.13;;;;;;;;;;5069972;28;20078;-67
2022/01/01 04:34:27;;;;;;;8.63;5.78;;;;;;;;;;5069723;28;20028;-67
2022/01/01 04:37:01;;;;;;;9.77;5.47;;;;;;;;;;5069594;28;20098;-67
2022/01/01 04:39:28;;;;;;;8.43;5.00;;;;;;;;;;5069865;28;20024;-67
2022/01/01 04:41:53;;;;;;;8.60;5.35;;;;;;;;;;5069774;28;20541;-67
2022/01/01 04:44:19;;;;;;;7.22;4.45;;;;;;;;;;5069369;28;20032;-67
2022/01/01 04:46:45;;;;;;;7.88;5.22;;;;;;;;;;5069915;28;20396;-67
2022/01/01 04:49:10;;;;;;;7.75;5.22;;;;;;;;;;5069928;28;20039;-67
2022/01/01 04:51:37;;;;;;;7.40;5.00;;;;;;;;;;5072698;28;20099;-67
2022/01/01 04:54:02;;;;;;;8.65;5.88;;;;;;;;;;5073092;28;20399;-67
2022/01/01 04:56:30;;;;;;;9.75;6.28;;;;;;;;;;5073316;28;20029;-67
2022/01/01 04:58:56;;;;;;;9.52;5.93;;;;;;;;;;5055374;28;20074;-66
2022/01/01 05:01:21;;;;;;;9.93;6.30;;;;;;;;;;5073137;28;20270;-66
2022/01/01 05:03:47;;;;;;;10.02;5.32;;;;;;;;;;5073174;28;20472;-67
2022/01/01 05:06:13;;;;;;;9.32;5.65;;;;;;;;;;5072898;28;20067;-67
2022/01/01 05:08:38;;;;;;;8.25;5.35;;;;;;;;;;5073106;28;20055;-67
2022/01/01 05:11:04;;;;;;;7.78;5.20;;;;;;;;;;5072876;28;20480;-67
2022/01/01 05:13:30;;;;;;;6.70;4.82;;;;;;;;;;5072783;28;20494;-66
2022/01/01 05:15:56;;;;;;;8.25;5.03;;;;;;;;;;5072755;28;20505;-67
2022/01/01 05:18:22;;;;;;;8.20;4.70;;;;;;;;;;5072953;28;20059;-67
2022/01/01 05:20:48;;;;;;;6.68;4.72;;;;;;;;;;5072834;28;20038;-66
2022/01/01 05:23:14;;;;;;;7.78;4.70;;;;;;;;;;5072873;28;20033;-67
2022/01/01 05:25:39;;;;;;;7.45;4.50;;;;;;;;;;5072325;28;20025;-67
2022/01/01 05:28:05;;;;;;;7.22;4.40;;;;;;;;;;5072493;28;20039;-67
2022/01/01 05:30:30;;;;;;;7.28;4.43;;;;;;;;;;5054489;28;20038;-67
2022/01/01 05:33:01;;;;;;;6.38;4.10;;;;;;;;;;5072693;28;20480;-67
2022/01/01 05:35:27;;;;;;;7.00;3.97;;;;;;;;;;5072309;28;20048;-67
2022/01/01 05:37:53;;;;;;;6.45;4.35;;;;;;;;;;5072617;28;20034;-67
2022/01/01 05:40:18;;;;;;;8.43;4.38;;;;;;;;;;5072404;28;20028;-67
2022/01/01 05:42:47;;;;;;;6.53;4.25;;;;;;;;;;5072356;28;20031;-67
2022/01/01 05:45:12;;;;;;;7.28;4.40;;;;;;;;;;5072021;28;20400;-66
2022/01/01 05:47:38;;;;;;;6.72;4.20;;;;;;;;;;5072253;28;20468;-66
2022/01/01 05:50:04;;;;;;;7.38;4.22;;;;;;;;;;5072361;28;20029;-67
2022/01/01 05:52:30;;;;;;;6.20;3.90;;;;;;;;;;5072270;28;20036;-67
2022/01/01 05:54:55;;;;;;;6.85;4.20;;;;;;;;;;5071955;28;20029;-67
2022/01/01 05:57:21;;;;;;;5.90;3.78;;;;;;;;;;5072175;28;20499;-66
2022/01/01 05:59:46;;;;;;;5.95;3.88;;;;;;;;;;5071962;28;20025;-67
2022/01/01 06:02:12;;;;;;;6.43;4.05;;;;;;;;;;5071779;28;20066;-66
2022/01/01 06:04:38;;;;;;;6.45;4.20;;;;;;;;;;5071905;28;20035;-67
2022/01/01 06:07:04;;;;;;;5.72;3.95;;;;;;;;;;5071953;28;20080;-67
2022/01/01 06:09:29;;;;;;;6.85;4.10;;;;;;;;;;5071912;28;20166;-67
2022/01/01 06:11:55;;;;;;;4.95;3.72;;;;;;;;;;5071929;28;20024;-67
2022/01/01 06:14:21;;;;;;;5.65;3.75;;;;;;;;;;5071600;28;20035;-72
2022/01/01 06:16:47;;;;;;;6.15;3.90;;;;;;;;;;5071839;28;20488;-66
2022/01/01 06:19:13;;;;;;;6.20;4.00;;;;;;;;;;5071751;28;20048;-67
2022/01/01 06:21:38;;;;;;;5.88;3.97;;;;;;;;;;5071644;28;20476;-67
2022/01/01 06:24:04;;;;;;;5.97;4.07;;;;;;;;;;5071521;28;20028;-67
2022/01/01 06:26:30;;;;;;;6.20;4.38;;;;;;;;;;5071467;28;20032;-67
2022/01/01 06:28:55;;;;;;;8.45;4.50;;;;;;;;;;5071324;28;20025;-67
2022/01/01 06:31:21;;;;;;;8.93;5.25;;;;;;;;;;5071597;28;20094;-67
2022/01/01 06:33:46;;;;;;;7.35;5.13;;;;;;;;;;5071276;28;20120;-66
2022/01/01 06:36:15;;;;;;;7.22;5.18;;;;;;;;;;5070785;28;20051;-67
2022/01/01 06:38:42;;;;;;;6.78;3.92;;;;;;;;;;5071271;28;20020;-67
2022/01/01 06:41:08;;;;;;;6.10;3.90;;;;;;;;;;5071216;28;20039;-67
2022/01/01 06:43:33;;;;;;;6.88;3.92;;;;;;;;;;5071173;28;20270;-67
2022/01/01 06:45:59;;;;;;;6.60;4.03;;;;;;;;;;5070892;28;20035;-67
2022/01/01 06:48:24;;;;;;;5.90;4.10;;;;;;;;;;5070991;28;20054;-66
2022/01/01 06:50:51;;;;;;;6.80;4.07;;;;;;;;;;5071139;28;20033;-67
2022/01/01 06:53:17;;;;;;;6.78;4.40;;;;;;;;;;5053008;28;20040;-66
2022/01/01 06:55:43;;;;;;;6.63;4.20;;;;;;;;;;5070710;28;20029;-67
2022/01/01 06:58:08;;;;;;;8.88;4.53;;;;;;;;;;5070815;28;20189;-67
2022/01/01 07:00:34;;;;;;;6.55;4.00;;;;;;;;;;5070856;28;20033;-67
2022/01/01 07:03:00;;;;;;;7.45;3.90;;;;;;;;;;5053040;28;20028;-67
2022/01/01 07:05:25;;;;;;;6.28;3.92;;;;;;;;;;5070672;28;20408;-67
2022/01/01 07:07:51;;;;;;;6.63;4.07;;;;;;;;;;5070779;28;20040;-67
2022/01/01 07:10:16;;;;;;;7.88;4.53;;;;;;;;;;5070819;28;20081;-67
2022/01/01 07:12:42;;;;;;;7.47;4.20;;;;;;;;;;5070303;28;20025;-66
2022/01/01 07:15:10;;;;;;;6.93;4.75;;;;;;;;;;5070602;28;20024;-67
2022/01/01 07:17:36;;;;;;;10.05;6.97;;;;;;;;;;5070753;28;20024;-67
2022/01/01 07:20:01;;;;;;;11.77;7.90;;;;;;;;;;5070607;28;20058;-67
2022/01/01 07:22:27;;;;;;;10.23;7.82;;;;;;;;;;5070498;28;20033;-67
2022/01/01 07:24:52;;;;;;;13.48;8.98;;;;;;;;;;5070329;28;20398;-75
2022/01/01 07:27:20;;;;;;;17.75;11.70;;;;;;;;;;5070665;28;20026;-67
2022/01/01 07:29:45;;;;;;;10.15;6.07;;;;;;;;;;5070532;28;20028;-67
2022/01/01 07:32:11;;;;;;;9.40;5.30;;;;;;;;;;5070495;28;20032;-67
2022/01/01 07:34:36;;;;;;;7.57;5.30;;;;;;;;;;5070470;28;20029;-67
2022/01/01 07:37:02;;;;;;;7.55;5.15;;;;;;;;;;5069975;28;20080;-67
2022/01/01 07:39:27;;;;;;;7.82;4.93;;;;;;;;;;5070665;28;20025;-67
2022/01/01 07:41:53;;;;;;;8.18;4.65;;;;;;;;;;5070247;28;20028;-66
2022/01/01 07:44:18;;;;;;;5.57;3.80;;;;;;;;;;5070513;28;20077;-67
2022/01/01 07:46:44;;;;;;;6.32;3.97;;;;;;;;;;5070117;28;20020;-66
2022/01/01 07:49:09;;;;;;;7.60;4.70;;;;;;;;;;5070173;28;20073;-66
2022/01/01 07:51:35;;;;;;;7.35;4.38;;;;;;;;;;5070650;28;20031;-67
2022/01/01 07:54:00;;;;;;;6.90;4.80;;;;;;;;;;5070335;28;20028;-67
2022/01/01 07:56:25;;;;;;;6.72;4.47;;;;;;;;;;5070010;28;20025;-67
2022/01/01 07:58:51;;;;;;;6.85;4.05;;;;;;;;;;5070205;28;20381;-67
2022/01/01 08:01:16;;;;;;;9.15;4.20;;;;;;;;;;5070085;28;20479;-67
2022/01/01 08:03:42;;;;;;;6.43;4.43;;;;;;;;;;5070218;28;20150;-67
2022/01/01 08:06:07;;;;;;;6.47;3.88;;;;;;;;;;5069976;28;20073;-67
2022/01/01 08:08:33;;;;;;;6.80;4.15;;;;;;;;;;5070114;28;20023;-67
2022/01/01 08:10:59;;;;;;;4.95;3.38;;;;;;;;;;5070123;28;20388;-67
2022/01/01 08:13:25;;;;;;;7.72;3.60;;;;;;;;;;5069866;28;20025;-67
2022/01/01 08:15:54;;;;;;;7.15;4.00;;;;;;;;;;5069749;28;20029;-67
2022/01/01 08:18:21;;;;;;;6.07;3.97;;;;;;;;;;5070044;28;20035;-66
2022/01/01 08:20:47;;;;;;;6.47;4.18;;;;;;;;;;5069884;28;20111;-67
2022/01/01 08:23:14;;;;;;;14.60;4.40;;;;;;;;;;5070061;28;20514;-67
2022/01/01 08:25:40;;;;;;;8.90;4.57;;;;;;;;;;5071548;28;20107;-66
2022/01/01 08:28:06;;;;;;;7.65;4.25;;;;;;;;;;5073654;28;20822;-67
2022/01/01 08:30:35;;;;;;;8.15;4.30;;;;;;;;;;5073822;28;20029;-66
2022/01/01 08:33:03;;;;;;;7.53;4.55;;;;;;;;;;5073581;28;20024;-67
2022/01/01 08:35:34;;;;;;;7.65;4.72;;;;;;;;;;5073237;28;20114;-67
2022/01/01 08:38:03;;;;;;;7.38;4.22;;;;;;;;;;5073596;28;20040;-67
2022/01/01 08:40:29;;;;;;;6.40;4.22;;;;;;;;;;5073434;28;20025;-67
2022/01/01 08:42:54;;;;;;;7.95;4.53;;;;;;;;;;5073409;28;20028;-66
2022/01/01 08:45:21;;;;;;;6.40;4.50;;;;;;;;;;5055231;28;20148;-73
2022/01/01 08:47:47;;;;;;;6.38;4.45;;;;;;;;;;5073378;28;20025;-67
2022/01/01 08:50:13;;;;;;;11.10;5.40;;;;;;;;;;5073437;28;20274;-67
2022/01/01 08:52:39;;;;;;;7.80;5.13;;;;;;;;;;5073594;28;20258;-67
2022/01/01 08:55:05;;;;;;;7.88;5.35;;;;;;;;;;5073259;28;20028;-67
2022/01/01 08:57:32;;;;;;;10.25;5.32;;;;;;;;;;5055088;28;20115;-67
2022/01/01 08:59:58;;;;;;;10.63;5.63;;;;;;;;;;5073102;28;20047;-66
2022/01/01 09:02:23;;;;;;;8.43;5.65;;;;;;;;;;5072959;28;20024;-67
2022/01/01 09:04:49;;;;;;;8.85;5.28;;;;;;;;;;5073238;28;20428;-67
2022/01/01 09:07:14;;;;;;;7.28;4.30;;;;;;;;;;5072841;28;20029;-67
2022/01/01 09:09:40;;;;;;;7.75;4.13;;;;;;;;;;5073176;28;20033;-67
2022/01/01 09:12:07;;;;;;;7.50;4.35;;;;;;;;;;5073016;28;20102;-67
2022/01/01 09:14:33;;;;;;;8.27;4.25;;;;;;;;;;5072907;28;20082;-67
2022/01/01 09:16:58;;;;;;;6.47;4.13;;;;;;;;;;5072685;28;20025;-66
2022/01/01 09:19:24;;;;;;;7.45;4.22;;;;;;;;;;5072960;28;20024;-67
2022/01/01 09:21:49;;;;;;;7.13;4.13;;;;;;;;;;5072827;28;20032;-67
2022/01/01 09:24:15;;;;;;;6.57;4.15;;;;;;;;;;5072655;28;20078;-67
2022/01/01 09:26:41;;;;;;;7.53;4.20;;;;;;;;;;5072443;28;20384;-67
2022/01/01 09:29:07;;;;;;;6.85;4.60;;;;;;;;;;5072581;28;20048;-67
2022/01/01 09:31:32;;;;;;;7.07;4.35;;;;;;;;;;5072637;28;20025;-67
2022/01/01 09:33:58;;;;;;;7.72;4.40;;;;;;;;;;5073000;28;20031;-67
2022/01/01 09:36:24;;;;;;;7.22;4.35;;;;;;;;;;5071667;28;20053;-67
2022/01/01 09:38:49;;;;;;;6.22;4.20;;;;;;;;;;5072546;28;20032;-67
2022/01/01 09:41:15;;;;;;;7.38;4.30;;;;;;;;;;5072428;28;20044;-67
2022/01/01 09:43:41;;;;;;;7.15;4.90;;;;;;;;;;5072330;28;20645;-67
2022/01/01 09:46:08;;;;;;;6.32;4.20;;;;;;;;;;5072055;28;20032;-67
2022/01/01 09:48:34;;;;;;;10.85;4.68;;;;;;;;;;5072465;28;20479;-67
2022/01/01 09:51:03;;;;;;;7.82;4.25;;;;;;;;;;5072377;28;20028;-67
2022/01/01 09:53:31;;;;;;;7.55;4.10;;;;;;;;;;5072279;28;20028;-67
2022/01/01 09:56:00;;;;;;;6.05;4.13;;;;;;;;;;5054037;28;20025;-67
2022/01/01 09:58:28;;;;;;;16.13;7.75;;;;;;;;;;5071975;28;20507;-67
2022/01/01 10:00:54;;;;;;;11.93;7.13;;;;;;;;;;5071802;28;20028;-67
2022/01/01 10:03:33;;;;;;;10.02;6.40;;;;;;;;;;5072119;28;20025;-67
2022/01/01 10:06:08;;;;;;;9.15;5.55;;;;;;;;;;5071691;28;20009;-67
2022/01/01 10:08:37;;;;;;;8.70;5.43;;;;;;;;;;5071834;28;20040;-67
2022/01/01 10:11:03;;;;;;;9.27;5.70;;;;;;;;;;5071830;28;20056;-67
2022/01/01 10:13:31;;;;;;;10.85;8.02;;;;;;;;;;5071738;28;20109;-67
2022/01/01 10:15:59;;;;;;;10.98;7.28;;;;;;;;;;5071647;28;20020;-69
2022/01/01 10:18:26;;;;;;;10.82;6.90;;;;;;;;;;5071678;28;20103;-67
2022/01/01 10:21:01;;;;;;;11.10;6.13;;;;;;;;;;5071616;28;20069;-67
2022/01/01 10:23:29;;;;;;;9.73;6.10;;;;;;;;;;5071519;28;20043;-66
2022/01/01 10:29:23;;;;;;;9.93;6.00;;;;;;;;;;5071423;28;20052;-67
2022/01/01 10:32:12;;;;;;;10.13;5.93;;;;;;;;;;5071307;28;20540;-67
2022/01/01 10:34:45;;;;;;;10.35;6.45;;;;;;;;;;5065560;28;20063;-67
2022/01/01 10:37:13;;;;;;;13.73;8.50;;;;;;;;;;5070957;28;20040;-67
2022/01/01 10:39:49;;;;;;;14.55;8.80;;;;;;;;;;5071304;28;20024;-67
2022/01/01 10:42:14;;;;;;;14.75;9.52;;;;;;;;;;5071229;28;20032;-67
2022/01/01 10:44:47;;;;;;;14.80;9.30;;;;;;;;;;5071214;28;20044;-67
2022/01/01 10:47:20;;;;;;;15.65;10.13;;;;;;;;;;5070465;28;20021;-67
2022/01/01 10:52:15;;;;;;;11.52;7.00;;;;;;;;;;5071149;28;20059;-67
2022/01/01 10:54:58;;;;;;;17.42;10.25;;;;;;;;;;5071021;28;20025;-67
2022/01/01 10:57:25;;;;;;;16.30;8.82;;;;;;;;;;5070853;28;20430;-67
2022/01/01 10:59:51;;;;;;;16.60;9.13;;;;;;;;;;5071056;28;20060;-66
2022/01/01 11:02:24;;;;;;;11.88;7.65;;;;;;;;;;5070773;28;20137;-67
2022/01/01 11:04:50;;;;;;;14.80;7.57;;;;;;;;;;5070890;28;20051;-66
2022/01/01 11:07:26;;;;;;;11.70;6.65;;;;;;;;;;5070539;28;20031;-70
2022/01/01 11:09:54;;;;;;;13.27;6.55;;;;;;;;;;5070803;28;20499;-67
2022/01/01 11:12:21;;;;;;;9.70;6.10;;;;;;;;;;5070665;28;20029;-67
2022/01/01 11:14:47;;;;;;;16.55;9.57;;;;;;;;;;5070823;28;20024;-67
2022/01/01 11:17:13;;;;;;;22.58;11.82;;;;;;;;;;5070957;28;20567;-67
2022/01/01 11:19:39;;;;;;;19.23;10.35;;;;;;;;;;5070594;28;20107;-67
2022/01/01 11:22:05;;;;;;;14.63;8.55;;;;;;;;;;5070561;28;20032;-67
2022/01/01 11:24:31;;;;;;;12.52;8.07;;;;;;;;;;5070641;28;20032;-67
2022/01/01 11:26:57;;;;;;;14.80;9.35;;;;;;;;;;5070302;28;20028;-67
2022/01/01 11:29:23;;;;;;;20.52;11.77;;;;;;;;;;5070444;28;20542;-68
2022/01/01 11:31:52;;;;;;;14.75;9.30;;;;;;;;;;5070525;28;20033;-67
2022/01/01 11:34:18;;;;;;;12.43;7.70;;;;;;;;;;5070416;28;20063;-67
2022/01/01 11:36:43;;;;;;;9.90;6.60;;;;;;;;;;5069990;28;20067;-68
2022/01/01 11:39:13;;;;;;;11.32;6.47;;;;;;;;;;5070326;28;20036;-67
2022/01/01 11:41:44;;;;;;;9.73;6.22;;;;;;;;;;5070355;28;20027;-67
2022/01/01 11:44:34;;;;;;;10.25;6.00;;;;;;;;;;5070224;28;20040;-67
2022/01/01 11:47:14;;;;;;;17.02;8.68;;;;;;;;;;5070064;28;20024;-67
2022/01/01 11:49:39;;;;;;;10.25;6.80;;;;;;;;;;5070233;28;20105;-67
2022/01/01 11:52:06;;;;;;;9.35;6.07;;;;;;;;;;5070299;28;20414;-67
2022/01/01 11:54:38;;;;;;;14.82;8.18;;;;;;;;;;5070186;28;20074;-67
2022/01/01 11:57:07;;;;;;;12.35;7.72;;;;;;;;;;5070064;28;20059;-67
2022/01/01 11:59:38;;;;;;;13.30;8.30;;;;;;;;;;5071770;28;20021;-67
2022/01/01 12:02:04;;;;;;;18.23;10.95;;;;;;;;;;5074401;28;20214;-67
2022/01/01 12:04:41;;;;;;;12.02;7.53;;;;;;;;;;5074251;28;20052;-67
2022/01/01 12:07:28;;;;;;;11.73;7.32;;;;;;;;;;5074132;28;20031;-67
2022/01/01 12:10:24;;;;;;;14.18;8.00;;;;;;;;;;5074123;28;20016;-67
2022/01/01 12:12:58;;;;;;;12.70;8.38;;;;;;;;;;5065225;28;20044;-67
2022/01/01 12:15:45;;;;;;;14.48;8.48;;;;;;;;;;5074014;28;20020;-67
2022/01/01 12:18:29;;;;;;;12.43;7.85;;;;;;;;;;5055791;28;20201;-67
2022/01/01 12:21:01;;;;;;;11.57;6.93;;;;;;;;;;5073970;28;20039;-67
2022/01/01 12:23:31;;;;;;;12.32;7.07;;;;;;;;;;5073904;28;20024;-67
2022/01/01 12:25:57;;;;;;;11.63;7.47;;;;;;;;;;5073927;28;20013;-67
2022/01/01 12:28:35;;;;;;;12.48;6.93;;;;;;;;;;5073512;28;20227;-67
2022/01/01 12:31:20;;;;;;;11.45;7.28;;;;;;;;;;5073713;28;20115;-68
2022/01/01 12:33:52;;;;;;;15.95;8.85;;;;;;;;;;5073810;28;20021;-67
2022/01/01 12:36:20;;;;;;;17.25;9.82;;;;;;;;;;5073347;28;20551;-67
2022/01/01 12:39:07;;;;;;;15.63;9.43;;;;;;;;;;5073515;28;20032;-67
2022/01/01 12:41:42;;;;;;;15.65;9.45;;;;;;;;;;5073445;28;20077;-67
2022/01/01 12:44:13;;;;;;;13.85;8.95;;;;;;;;;;5073407;28;20110;-67
2022/01/01 12:46:44;;;;;;;17.77;8.93;;;;;;;;;;5073388;28;20480;-67
2022/01/01 12:49:10;;;;;;;14.27;8.18;;;;;;;;;;5073047;28;20483;-67
2022/01/01 12:51:39;;;;;;;11.30;7.20;;;;;;;;;;5073444;28;20033;-67
2022/01/01 12:54:10;;;;;;;11.60;7.63;;;;;;;;;;5073436;28;20020;-68
2022/01/01 12:56:38;;;;;;;15.68;9.32;;;;;;;;;;5073467;28;20046;-70
2022/01/01 12:59:10;;;;;;;18.58;10.18;;;;;;;;;;5073037;28;20104;-68
2022/01/01 13:01:38;;;;;;;14.60;8.25;;;;;;;;;;5072978;28;20034;-68
2022/01/01 13:04:11;;;;;;;12.68;7.57;;;;;;;;;;5073096;28;20103;-67
2022/01/01 13:06:38;;;;;;;14.50;7.43;;;;;;;;;;5073227;28;20361;-67
2022/01/01 13:09:04;;;;;;;23.67;13.15;;;;;;;;;;5072897;28;20020;-67
2022/01/01 13:11:31;;;;;;;29.65;17.70;;;;;;;;;;5072254;28;20575;-67
2022/01/01 13:13:57;;;;;;;22.83;12.48;;;;;;;;;;5072624;28;20074;-67
2022/01/01 13:16:23;;;;;;;14.80;9.20;;;;;;;;;;5072990;28;20021;-67
2022/01/01 13:18:50;;;;;;;15.48;9.02;;;;;;;;;;5072748;28;20025;-67
2022/01/01 13:21:16;;;;;;;16.20;9.40;;;;;;;;;;5072735;28;20484;-67
2022/01/01 13:23:41;;;;;;;24.65;13.13;;;;;;;;;;5072801;28;20074;-67
2022/01/01 13:26:07;;;;;;;30.00;14.90;;;;;;;;;;5072794;28;20021;-67
2022/01/01 13:28:35;;;;;;;17.88;9.65;;;;;;;;;;5072446;28;20049;-67
2022/01/01 13:31:03;;;;;;;33.78;16.40;;;;;;;;;;5072597;28;20040;-66
2022/01/01 13:33:29;;;;;;;20.33;10.07;;;;;;;;;;5072613;28;20074;-67
2022/01/01 13:35:58;;;;;;;17.20;9.10;;;;;;;;;;5072463;28;20037;-66
2022/01/01 13:38:25;;;;;;;12.48;7.70;;;;;;;;;;5072306;28;20070;-66
2022/01/01 13:40:55;;;;;;;11.43;7.40;;;;;;;;;;5054415;28;20028;-67
2022/01/01 13:43:31;;;;;;;10.60;7.22;;;;;;;;;;5072197;28;20024;-67
2022/01/01 13:46:11;;;;;;;11.68;7.43;;;;;;;;;;5072402;28;20024;-67
2022/01/01 13:48:47;;;;;;;10.68;7.28;;;;;;;;;;5072013;28;20025;-67
2022/01/01 13:51:15;;;;;;;12.43;8.00;;;;;;;;;;5072369;28;20029;-66
2022/01/01 13:53:42;;;;;;;13.35;8.00;;;;;;;;;;5072249;28;20369;-67
2022/01/01 13:56:10;;;;;;;13.73;8.27;;;;;;;;;;5072156;28;20024;-67
2022/01/01 13:58:44;;;;;;;15.05;8.32;;;;;;;;;;5072155;28;20362;-67
2022/01/01 14:01:12;;;;;;;15.15;7.90;;;;;;;;;;5071853;28;20025;-67
2022/01/01 14:03:40;;;;;;;12.10;7.38;;;;;;;;;;5072072;28;20020;-67
2022/01/01 14:06:05;;;;;;;12.60;7.40;;;;;;;;;;5072043;28;20032;-67
2022/01/01 14:08:31;;;;;;;11.27;7.75;;;;;;;;;;5071687;28;20384;-66
2022/01/01 14:10:59;;;;;;;11.98;7.82;;;;;;;;;;5054006;28;20032;-66
2022/01/01 14:13:32;;;;;;;13.18;7.35;;;;;;;;;;5071626;28;20493;-66
2022/01/01 14:15:59;;;;;;;11.63;6.47;;;;;;;;;;5071799;28;20101;-66
2022/01/01 14:18:32;;;;;;;9.52;6.30;;;;;;;;;;5071625;28;20024;-66
2022/01/01 14:20:59;;;;;;;13.50;6.80;;;;;;;;;;5071501;28;20047;-66
2022/01/01 14:23:27;;;;;;;12.02;6.57;;;;;;;;;;5071633;28;20033;-66
2022/01/01 14:26:00;;;;;;;11.48;6.57;;;;;;;;;;5071782;28;20495;-66
2022/01/01 14:28:26;;;;;;;12.10;6.38;;;;;;;;;;5071162;28;20035;-66
2022/01/01 14:30:53;;;;;;;10.55;6.72;;;;;;;;;;5071420;28;20033;-66
2022/01/01 14:33:20;;;;;;;12.80;6.90;;;;;;;;;;5071403;28;20107;-66
2022/01/01 14:35:45;;;;;;;14.45;7.72;;;;;;;;;;5071195;28;20037;-66
2022/01/01 14:38:11;;;;;;;14.88;8.40;;;;;;;;;;5071312;28;20032;-66
2022/01/01 14:40:38;;;;;;;12.32;7.90;;;;;;;;;;5071253;28;20039;-66